Time;durP1;ratioP1;P1;durP2;ratioP2;P2;SDS_P1;SDS_P2;PMS_P1;PMS_P2;Temp;Humidity;BMP_temperature;BMP_pressure;BME280_temperature;BME280_humidity;BME280_pressure;Samples;Min_cycle;Max_cycle;Signal;HPM_P1;HPM_P2
2022/12/30 00:01:50;;;;;;;;;;;;;;;9.57;72.83;102429.50;5095850;28;20290;-83
2022/12/30 00:04:16;;;;;;;;;;;;;;;9.56;73.04;102430.28;5104878;28;20405;-83
2022/12/30 00:06:41;;;;;;;;;;;;;;;9.57;72.76;102432.13;5101001;28;19948;-83
2022/12/30 00:09:07;;;;;;;;;;;;;;;9.58;73.05;102429.63;5062881;28;19939;-83
2022/12/30 00:11:33;;;;;;;;;;;;;;;9.56;72.75;102430.28;5071930;28;19916;-83
2022/12/30 00:33:48;;;;;;;;;;;;;;;9.55;72.74;102431.97;5084075;28;19999;-83
2022/12/30 00:36:13;;;;;;;;;;;;;;;9.56;72.47;102428.56;5097544;28;19924;-83
2022/12/30 00:38:39;;;;;;;;;;;;;;;9.52;72.75;102429.09;5049274;28;20540;-82
2022/12/30 00:43:48;;;;;;;;;;;;;;;9.53;72.81;102436.16;5064259;28;20380;-83
2022/12/30 00:46:14;;;;;;;;;;;;;;;9.53;72.68;102430.94;5062512;28;19920;-83
2022/12/30 00:56:51;;;;;;;;;;;;;;;9.57;72.75;102429.50;5061660;28;19928;-83
2022/12/30 00:59:16;;;;;;;;;;;;;;;9.53;72.91;102433.53;5063258;28;20317;-83
2022/12/30 01:01:42;;;;;;;;;;;;;;;9.50;72.97;102428.09;5093005;28;20005;-83
2022/12/30 01:04:07;;;;;;;;;;;;;;;9.49;72.72;102422.72;5086943;28;19971;-83
2022/12/30 01:06:32;;;;;;;;;;;;;;;9.53;72.76;102427.44;5076312;28;20510;-83
2022/12/30 01:08:58;;;;;;;;;;;;;;;9.53;72.47;102436.16;5058691;28;19921;-83
2022/12/30 01:11:23;;;;;;;;;;;;;;;9.51;72.59;102426.38;5053404;28;20412;-83
2022/12/30 01:13:49;;;;;;;;;;;;;;;9.49;72.96;102428.84;5065899;28;20366;-83
2022/12/30 01:16:15;;;;;;;;;;;;;;;9.53;72.51;102424.81;5056622;28;19928;-83
2022/12/30 01:18:40;;;;;;;;;;;;;;;9.51;73.19;102424.69;5089142;28;20356;-83
2022/12/30 01:21:06;;;;;;;;;;;;;;;9.49;72.99;102420.13;5083350;28;19955;-83
2022/12/30 01:23:31;;;;;;;;;;;;;;;9.50;72.90;102429.75;5075617;28;20407;-83
2022/12/30 01:26:01;;;;;;;;;;;;;;;9.49;72.67;102420.13;5087844;28;20362;-82
2022/12/30 01:28:34;;;;;;;;;;;;;;;9.50;72.73;102421.94;5090760;28;19924;-83
2022/12/30 01:30:59;;;;;;;;;;;;;;;9.48;72.79;102419.22;5093497;28;19925;-83
2022/12/30 01:33:25;;;;;;;;;;;;;;;9.48;72.89;102423.50;5058012;28;19917;-83
2022/12/30 01:35:50;;;;;;;;;;;;;;;9.45;72.53;102416.34;5063399;28;19924;-82
2022/12/30 01:38:16;;;;;;;;;;;;;;;9.46;72.90;102412.03;5072907;28;19921;-83
2022/12/30 01:40:42;;;;;;;;;;;;;;;9.44;72.50;102411.91;5083534;28;20405;-83
2022/12/30 01:43:11;;;;;;;;;;;;;;;9.46;72.95;102406.81;5086741;28;19973;-83
2022/12/30 01:45:37;;;;;;;;;;;;;;;9.45;72.80;102402.38;5088291;28;19989;-85
2022/12/30 01:48:04;;;;;;;;;;;;;;;9.45;72.63;102407.59;5105237;28;20421;-84
2022/12/30 01:50:33;;;;;;;;;;;;;;;9.45;72.43;102405.91;5090366;28;19925;-82
2022/12/30 01:53:08;;;;;;;;;;;;;;;9.45;72.80;102408.50;5084533;28;19968;-83
2022/12/30 01:55:35;;;;;;;;;;;;;;;9.41;72.79;102398.59;5063558;28;20397;-83
2022/12/30 01:58:01;;;;;;;;;;;;;;;9.44;72.56;102398.88;5089470;28;19928;-83
2022/12/30 02:00:26;;;;;;;;;;;;;;;9.42;72.51;102397.84;5093484;28;19920;-83
2022/12/30 02:02:52;;;;;;;;;;;;;;;9.42;72.77;102395.22;5049009;28;20447;-83
2022/12/30 02:05:18;;;;;;;;;;;;;;;9.41;72.90;102392.47;5096969;28;20003;-83
2022/12/30 02:07:55;;;;;;;;;;;;;;;9.40;72.92;102404.63;5089662;28;19925;-83
2022/12/30 02:10:20;;;;;;;;;;;;;;;9.42;72.40;102402.13;5081581;28;20314;-83
2022/12/30 02:12:46;;;;;;;;;;;;;;;9.41;72.80;102395.09;5096811;28;19912;-83
2022/12/30 02:15:13;;;;;;;;;;;;;;;9.40;72.83;102393.25;5065508;28;20464;-84
2022/12/30 02:17:50;;;;;;;;;;;;;;;9.38;72.70;102396.66;5098336;28;20011;-83
2022/12/30 02:20:19;;;;;;;;;;;;;;;9.38;72.91;102398.34;5053223;28;20382;-83
2022/12/30 02:22:52;;;;;;;;;;;;;;;9.36;73.10;102402.53;5052037;28;20572;-83
2022/12/30 02:25:36;;;;;;;;;;;;;;;9.39;72.64;102394.94;5092312;28;19948;-83
2022/12/30 02:28:20;;;;;;;;;;;;;;;9.40;72.50;102395.84;5053256;28;19928;-83
2022/12/30 02:31:04;;;;;;;;;;;;;;;9.39;72.61;102397.56;5057799;28;19955;-83
2022/12/30 02:33:32;;;;;;;;;;;;;;;9.35;72.68;102393.75;5060794;28;19920;-83
2022/12/30 02:35:57;;;;;;;;;;;;;;;9.35;72.68;102400.69;5064544;28;19917;-83
2022/12/30 02:38:32;;;;;;;;;;;;;;;9.35;72.68;102398.06;5064603;28;20413;-83
2022/12/30 02:46:34;;;;;;;;;;;;;;;9.36;72.41;102394.72;5090425;28;20383;-83
2022/12/30 02:48:59;;;;;;;;;;;;;;;9.36;72.79;102400.81;5100191;28;19920;-83
2022/12/30 02:54:09;;;;;;;;;;;;;;;9.31;72.95;102398.59;5067918;28;19931;-83
2022/12/30 02:56:34;;;;;;;;;;;;;;;9.32;72.88;102400.44;5066477;28;20395;-83
2022/12/30 03:04:58;;;;;;;;;;;;;;;9.29;72.81;102395.88;5063956;28;19929;-83
2022/12/30 03:07:27;;;;;;;;;;;;;;;9.31;72.91;102388.16;5050479;28;19931;-83
2022/12/30 03:12:55;;;;;;;;;;;;;;;9.28;72.76;102386.22;5084097;28;19932;-83
2022/12/30 03:15:21;;;;;;;;;;;;;;;9.29;72.83;102388.06;5051976;28;20015;-83
2022/12/30 03:17:47;;;;;;;;;;;;;;;9.29;72.78;102384.50;5089068;28;20373;-83
2022/12/30 03:20:14;;;;;;;;;;;;;;;9.29;72.54;102390.66;5097786;28;19924;-83
2022/12/30 03:28:08;;;;;;;;;;;;;;;9.28;72.52;102388.81;5054523;28;19928;-82
2022/12/30 03:30:35;;;;;;;;;;;;;;;9.26;72.65;102385.19;5085157;28;19925;-83
2022/12/30 03:33:01;;;;;;;;;;;;;;;9.27;72.74;102383.47;5053375;28;19924;-83
2022/12/30 03:35:27;;;;;;;;;;;;;;;9.26;72.72;102385.19;5097489;28;19971;-83
2022/12/30 03:37:53;;;;;;;;;;;;;;;9.25;72.73;102395.47;5099673;28;19921;-83
2022/12/30 03:40:24;;;;;;;;;;;;;;;9.21;72.60;102394.31;5057841;28;19929;-83
2022/12/30 03:42:49;;;;;;;;;;;;;;;9.27;72.46;102404.31;5105508;28;19986;-83
2022/12/30 03:45:14;;;;;;;;;;;;;;;9.28;72.87;102396.66;5078124;28;19964;-83
2022/12/30 03:47:40;;;;;;;;;;;;;;;9.21;72.87;102394.31;5091451;28;19931;-83
2022/12/30 03:50:05;;;;;;;;;;;;;;;9.23;72.66;102404.84;5066992;28;19917;-83
2022/12/30 03:52:31;;;;;;;;;;;;;;;9.21;72.74;102401.19;5060572;28;20403;-82
2022/12/30 03:54:56;;;;;;;;;;;;;;;9.22;72.79;102396.13;5058354;28;20402;-82
2022/12/30 03:57:22;;;;;;;;;;;;;;;9.23;72.85;102410.06;5098169;28;20548;-83
2022/12/30 03:59:47;;;;;;;;;;;;;;;9.21;72.72;102406.41;5091256;28;20405;-81
2022/12/30 04:02:12;;;;;;;;;;;;;;;9.21;72.82;102396.91;5044291;28;20441;-83
2022/12/30 04:04:38;;;;;;;;;;;;;;;9.22;72.50;102405.66;5098956;28;20405;-83
2022/12/30 04:07:03;;;;;;;;;;;;;;;9.24;72.47;102398.88;5063254;28;19924;-83
2022/12/30 04:09:29;;;;;;;;;;;;;;;9.20;72.30;102395.06;5095388;28;20386;-83
2022/12/30 04:11:54;;;;;;;;;;;;;;;9.19;72.82;102397.56;5051659;28;19922;-82
2022/12/30 04:14:19;;;;;;;;;;;;;;;9.19;72.67;102405.41;5057653;28;20390;-83
2022/12/30 04:16:45;;;;;;;;;;;;;;;9.16;72.52;102400.81;5094400;28;20400;-83
2022/12/30 04:19:10;;;;;;;;;;;;;;;9.15;72.64;102415.53;5051879;28;19921;-83
2022/12/30 04:21:36;;;;;;;;;;;;;;;9.18;72.49;102407.06;5061371;28;19954;-83
2022/12/30 04:24:01;;;;;;;;;;;;;;;9.15;72.99;102409.41;5048498;28;19943;-84
2022/12/30 04:26:27;;;;;;;;;;;;;;;9.14;72.81;102405.91;5060319;28;19927;-83
2022/12/30 04:28:53;;;;;;;;;;;;;;;9.15;72.54;102412.94;5085231;28;19921;-83
2022/12/30 04:31:18;;;;;;;;;;;;;;;9.19;72.61;102414.13;5042562;28;19916;-83
2022/12/30 04:33:47;;;;;;;;;;;;;;;9.15;72.49;102423.34;5067363;28;19912;-83
2022/12/30 04:36:12;;;;;;;;;;;;;;;9.12;72.91;102423.09;5054834;28;19924;-83
2022/12/30 04:38:38;;;;;;;;;;;;;;;9.13;72.64;102424.91;5060049;28;19964;-85
2022/12/30 04:41:03;;;;;;;;;;;;;;;9.14;72.63;102431.03;5054924;28;20413;-83
2022/12/30 04:46:13;;;;;;;;;;;;;;;9.13;72.75;102435.34;5059812;28;19919;-84
2022/12/30 04:48:38;;;;;;;;;;;;;;;9.12;72.52;102430.94;5058685;28;19921;-83
2022/12/30 04:51:03;;;;;;;;;;;;;;;9.08;72.82;102426.22;5096379;28;19920;-84
2022/12/30 04:53:29;;;;;;;;;;;;;;;9.09;72.83;102424.53;5060092;28;19978;-83
2022/12/30 04:55:55;;;;;;;;;;;;;;;9.12;72.76;102430.94;5071389;28;19924;-83
2022/12/30 04:58:20;;;;;;;;;;;;;;;9.12;72.77;102430.94;5104246;28;19927;-84
2022/12/30 05:00:46;;;;;;;;;;;;;;;9.11;72.58;102430.78;5071536;28;19920;-84
2022/12/30 05:03:11;;;;;;;;;;;;;;;9.07;72.92;102424.38;5071265;28;20287;-84
2022/12/30 05:05:37;;;;;;;;;;;;;;;9.09;72.78;102429.75;5071422;28;19921;-85
2022/12/30 05:08:02;;;;;;;;;;;;;;;9.04;72.81;102424.13;5064736;28;20471;-83
2022/12/30 05:10:28;;;;;;;;;;;;;;;9.05;72.92;102428.56;5066269;28;20279;-84
2022/12/30 05:12:53;;;;;;;;;;;;;;;9.08;72.72;102430.50;5060939;28;19916;-83
2022/12/30 05:15:18;;;;;;;;;;;;;;;9.10;72.69;102428.94;5056868;28;20449;-83
2022/12/30 05:17:44;;;;;;;;;;;;;;;9.06;72.66;102434.66;5062610;28;20386;-84
2022/12/30 05:20:09;;;;;;;;;;;;;;;9.03;72.62;102439.63;5057334;28;19920;-83
2022/12/30 05:22:35;;;;;;;;;;;;;;;9.06;72.55;102435.59;5060522;28;19917;-84
2022/12/30 05:27:44;;;;;;;;;;;;;;;9.09;72.35;102437.56;5061438;28;19943;-83
2022/12/30 05:30:12;;;;;;;;;;;;;;;9.06;72.37;102435.59;5052454;28;20213;-83
2022/12/30 05:32:37;;;;;;;;;;;;;;;9.05;72.21;102440.69;5046298;28;19921;-83
2022/12/30 05:35:03;;;;;;;;;;;;;;;9.06;72.21;102448.63;5053347;28;20405;-83
2022/12/30 05:37:28;;;;;;;;;;;;;;;9.08;72.36;102441.88;5056669;28;20393;-83
2022/12/30 05:39:53;;;;;;;;;;;;;;;9.08;72.32;102438.31;5070744;28;19956;-83
2022/12/30 05:42:19;;;;;;;;;;;;;;;9.03;72.19;102450.06;5082499;28;20383;-83
2022/12/30 05:44:45;;;;;;;;;;;;;;;9.03;72.69;102450.06;5055814;28;20517;-83
2022/12/30 05:47:10;;;;;;;;;;;;;;;9.02;72.58;102450.84;5060380;28;20369;-83
2022/12/30 05:49:35;;;;;;;;;;;;;;;9.02;72.64;102454.34;5057288;28;20391;-84
2022/12/30 05:52:01;;;;;;;;;;;;;;;8.99;72.43;102454.06;5093730;28;19921;-84
2022/12/30 05:54:26;;;;;;;;;;;;;;;9.01;72.62;102449.00;5054575;28;20398;-83
2022/12/30 05:56:52;;;;;;;;;;;;;;;9.00;72.53;102449.81;5088448;28;20467;-83
2022/12/30 05:59:17;;;;;;;;;;;;;;;9.00;72.50;102455.00;5056678;28;20425;-83
2022/12/30 06:01:42;;;;;;;;;;;;;;;8.98;72.43;102452.25;5057917;28;19928;-83
2022/12/30 06:04:08;;;;;;;;;;;;;;;8.94;72.25;102453.69;5081975;28;20374;-83
2022/12/30 06:06:34;;;;;;;;;;;;;;;9.01;72.15;102452.50;5079396;28;19925;-83
2022/12/30 06:08:59;;;;;;;;;;;;;;;8.98;72.14;102454.88;5046031;28;20377;-83
2022/12/30 06:11:24;;;;;;;;;;;;;;;8.90;72.32;102454.19;5066613;28;20023;-84
2022/12/30 06:13:50;;;;;;;;;;;;;;;8.92;72.59;102454.34;5067268;28;19932;-83
2022/12/30 06:16:15;;;;;;;;;;;;;;;8.96;72.41;102454.72;5053025;28;19921;-85
2022/12/30 06:18:41;;;;;;;;;;;;;;;8.93;72.27;102463.94;5085665;28;19983;-83
2022/12/30 06:21:11;;;;;;;;;;;;;;;8.92;72.28;102463.06;5101913;28;19920;-84
2022/12/30 06:23:38;;;;;;;;;;;;;;;8.93;72.48;102464.91;5060421;28;19952;-84
2022/12/30 06:26:03;;;;;;;;;;;;;;;8.96;72.50;102461.63;5065938;28;19971;-83
2022/12/30 06:28:30;;;;;;;;;;;;;;;8.88;72.26;102453.13;5093085;28;19925;-84
2022/12/30 06:30:56;;;;;;;;;;;;;;;8.89;72.40;102456.66;5042405;28;19920;-84
2022/12/30 06:33:23;;;;;;;;;;;;;;;8.90;72.52;102461.09;5063251;28;20294;-84
2022/12/30 06:35:48;;;;;;;;;;;;;;;8.90;72.47;102458.50;5071564;28;19924;-83
2022/12/30 06:38:14;;;;;;;;;;;;;;;8.90;72.33;102467.22;5106212;28;19917;-84
2022/12/30 06:40:39;;;;;;;;;;;;;;;8.89;72.52;102464.47;5072051;28;19918;-84
2022/12/30 06:43:04;;;;;;;;;;;;;;;8.86;72.43;102465.13;5088911;28;20455;-83
2022/12/30 06:45:30;;;;;;;;;;;;;;;8.86;72.50;102464.22;5071843;28;20351;-82
2022/12/30 06:47:55;;;;;;;;;;;;;;;8.88;72.55;102467.88;5106509;28;20011;-83
2022/12/30 06:50:21;;;;;;;;;;;;;;;8.84;72.83;102468.38;5103372;28;20325;-83
2022/12/30 06:52:46;;;;;;;;;;;;;;;8.83;72.92;102471.78;5062915;28;20412;-83
2022/12/30 06:55:12;;;;;;;;;;;;;;;8.85;72.70;102471.13;5073302;28;20378;-83
2022/12/30 06:57:37;;;;;;;;;;;;;;;8.83;73.07;102479.59;5063588;28;19921;-83
2022/12/30 07:00:05;;;;;;;;;;;;;;;8.85;72.87;102478.03;5105319;28;19921;-83
2022/12/30 07:02:30;;;;;;;;;;;;;;;8.86;72.67;102480.75;5106085;28;19937;-82
2022/12/30 07:04:55;;;;;;;;;;;;;;;8.83;72.61;102480.50;5073138;28;20636;-84
2022/12/30 07:07:21;;;;;;;;;;;;;;;8.85;72.86;102488.44;5071161;28;19943;-82
2022/12/30 07:09:46;;;;;;;;;;;;;;;8.83;72.64;102476.97;5103574;28;19917;-83
2022/12/30 07:12:12;;;;;;;;;;;;;;;8.84;72.62;102482.31;5069813;28;19927;-82
2022/12/30 07:14:37;;;;;;;;;;;;;;;8.84;73.00;102481.41;5059267;28;20394;-84
2022/12/30 07:17:03;;;;;;;;;;;;;;;8.82;72.75;102483.84;5072907;28;19929;-86
2022/12/30 07:19:28;;;;;;;;;;;;;;;8.82;72.71;102477.75;5052698;28;20402;-86
2022/12/30 07:21:54;;;;;;;;;;;;;;;8.83;72.63;102485.69;5069569;28;20014;-83
2022/12/30 07:24:19;;;;;;;;;;;;;;;8.86;72.61;102488.56;5066399;28;19951;-81
2022/12/30 07:26:45;;;;;;;;;;;;;;;8.86;72.55;102493.78;5079268;28;20421;-84
2022/12/30 07:29:12;;;;;;;;;;;;;;;8.82;72.74;102494.28;5080879;28;19925;-85
2022/12/30 07:31:38;;;;;;;;;;;;;;;8.84;72.92;102489.22;5098221;28;19982;-83
2022/12/30 07:34:04;;;;;;;;;;;;;;;8.87;72.69;102481.66;5061862;28;19929;-83
2022/12/30 07:36:29;;;;;;;;;;;;;;;8.84;72.61;102481.41;5094953;28;19974;-83
2022/12/30 07:38:55;;;;;;;;;;;;;;;8.84;72.52;102484.91;5106039;28;19975;-82
2022/12/30 07:41:21;;;;;;;;;;;;;;;8.85;72.63;102484.16;5064413;28;19920;-83
2022/12/30 07:43:46;;;;;;;;;;;;;;;8.84;72.55;102478.78;5057719;28;19928;-83
2022/12/30 07:46:12;;;;;;;;;;;;;;;8.82;72.70;102488.16;5045837;28;20382;-84
2022/12/30 07:48:38;;;;;;;;;;;;;;;8.85;72.83;102489.34;5063909;28;19921;-85
2022/12/30 07:51:07;;;;;;;;;;;;;;;8.85;72.42;102494.56;5060614;28;20317;-85
2022/12/30 07:53:33;;;;;;;;;;;;;;;8.87;72.71;102493.00;5097833;28;19924;-84
2022/12/30 07:55:58;;;;;;;;;;;;;;;8.84;72.50;102490.13;5057240;28;19921;-85
2022/12/30 07:58:23;;;;;;;;;;;;;;;8.83;72.55;102496.13;5088081;28;20314;-84
2022/12/30 08:00:49;;;;;;;;;;;;;;;8.86;72.65;102498.97;5063207;28;20379;-83
2022/12/30 08:03:14;;;;;;;;;;;;;;;8.84;72.74;102505.75;5051419;28;20404;-83
2022/12/30 08:05:40;;;;;;;;;;;;;;;8.85;72.57;102504.97;5060314;28;20473;-84
2022/12/30 08:08:05;;;;;;;;;;;;;;;8.82;72.71;102502.09;5104962;28;20451;-84
2022/12/30 08:10:31;;;;;;;;;;;;;;;8.84;72.72;102512.66;5072338;28;20475;-84
2022/12/30 08:12:56;;;;;;;;;;;;;;;8.85;72.69;102510.19;5058119;28;19917;-84
2022/12/30 08:15:22;;;;;;;;;;;;;;;8.86;72.41;102511.09;5053769;28;20557;-84
2022/12/30 08:17:47;;;;;;;;;;;;;;;8.84;72.45;102510.06;5101501;28;20374;-85
2022/12/30 08:20:13;;;;;;;;;;;;;;;8.86;72.58;102500.69;5051431;28;20580;-84
2022/12/30 08:22:41;;;;;;;;;;;;;;;8.84;72.39;102504.84;5051628;28;20390;-84
2022/12/30 08:25:07;;;;;;;;;;;;;;;8.87;72.68;102500.81;5056101;28;20887;-85
2022/12/30 08:27:34;;;;;;;;;;;;;;;8.83;72.48;102505.63;5035975;28;19920;-85
2022/12/30 08:30:00;;;;;;;;;;;;;;;8.83;72.72;102510.84;5042507;28;19921;-85
2022/12/30 08:32:25;;;;;;;;;;;;;;;8.80;73.12;102503.63;5075302;28;19917;-85
2022/12/30 08:34:50;;;;;;;;;;;;;;;8.82;72.82;102511.59;5064964;28;19966;-85
2022/12/30 08:37:16;;;;;;;;;;;;;;;8.79;72.96;102506.13;5052018;28;19920;-83
2022/12/30 08:39:41;;;;;;;;;;;;;;;8.75;72.83;102508.44;5085620;28;19954;-84
2022/12/30 08:42:07;;;;;;;;;;;;;;;8.84;72.71;102505.75;5089617;28;20491;-87
2022/12/30 08:44:32;;;;;;;;;;;;;;;8.82;72.58;102503.78;5053387;28;19921;-87
2022/12/30 08:46:57;;;;;;;;;;;;;;;8.76;72.84;102493.72;5035881;28;19921;-87
2022/12/30 08:49:23;;;;;;;;;;;;;;;8.77;73.03;102486.06;5055257;28;19925;-86
2022/12/30 08:51:49;;;;;;;;;;;;;;;8.83;72.64;102490.00;5066707;28;20309;-86
2022/12/30 08:54:14;;;;;;;;;;;;;;;8.82;72.73;102483.84;5099917;28;20317;-86
2022/12/30 08:56:40;;;;;;;;;;;;;;;8.80;72.87;102488.00;5097677;28;19967;-86
2022/12/30 08:59:05;;;;;;;;;;;;;;;8.81;72.69;102479.44;5071792;28;19916;-86
2022/12/30 09:01:40;;;;;;;;;;;;;;;8.81;72.80;102473.31;5097583;28;19924;-85
2022/12/30 09:04:06;;;;;;;;;;;;;;;8.81;72.61;102475.94;5031328;28;19917;-86
2022/12/30 09:06:32;;;;;;;;;;;;;;;8.84;72.87;102470.97;5084127;28;19947;-84
2022/12/30 09:08:58;;;;;;;;;;;;;;;8.80;73.01;102475.00;5064851;28;19970;-85
2022/12/30 09:11:25;;;;;;;;;;;;;;;8.82;72.68;102463.00;5084811;28;20019;-85
2022/12/30 09:13:51;;;;;;;;;;;;;;;8.77;72.73;102462.63;5068738;28;20493;-85
2022/12/30 09:16:17;;;;;;;;;;;;;;;8.80;72.90;102456.75;5086606;28;20022;-84
2022/12/30 09:18:43;;;;;;;;;;;;;;;8.79;72.92;102448.81;5065144;28;19940;-84
2022/12/30 09:21:08;;;;;;;;;;;;;;;8.75;73.00;102447.63;5061476;28;20520;-84
2022/12/30 09:23:34;;;;;;;;;;;;;;;8.76;72.61;102447.78;5065949;28;19916;-84
2022/12/30 09:25:59;;;;;;;;;;;;;;;8.81;72.91;102442.06;5103476;28;19921;-84
2022/12/30 09:28:24;;;;;;;;;;;;;;;8.75;72.94;102439.81;5070658;28;19923;-84
2022/12/30 09:30:50;;;;;;;;;;;;;;;8.75;72.98;102438.13;5092490;28;19989;-84
2022/12/30 09:33:15;;;;;;;;;;;;;;;8.77;72.79;102435.66;5101429;28;20006;-84
2022/12/30 09:35:41;;;;;;;;;;;;;;;8.79;73.18;102435.81;5101305;28;19958;-85
2022/12/30 09:38:06;;;;;;;;;;;;;;;8.76;73.02;102428.59;5097472;28;20051;-86
2022/12/30 09:40:38;;;;;;;;;;;;;;;8.76;73.09;102423.41;5096634;28;20305;-87
2022/12/30 09:43:16;;;;;;;;;;;;;;;8.75;73.09;102426.78;5083951;28;19982;-86
2022/12/30 09:45:44;;;;;;;;;;;;;;;8.73;73.21;102421.44;5083939;28;19947;-86
2022/12/30 09:48:15;;;;;;;;;;;;;;;8.70;73.36;102418.59;5057010;28;20374;-85
2022/12/30 09:50:45;;;;;;;;;;;;;;;8.69;73.44;102411.53;5048661;28;20386;-85
2022/12/30 09:53:20;;;;;;;;;;;;;;;8.68;73.44;102403.59;5064816;28;19923;-86
2022/12/30 09:55:53;;;;;;;;;;;;;;;8.65;73.62;102400.72;5055000;28;19920;-85
2022/12/30 09:58:23;;;;;;;;;;;;;;;8.68;73.61;102395.78;5087030;28;19917;-86
2022/12/30 10:00:48;;;;;;;;;;;;;;;8.63;73.79;102395.38;5105886;28;19920;-87
2022/12/30 10:03:26;;;;;;;;;;;;;;;8.66;73.77;102389.53;5103219;28;19920;-87
2022/12/30 10:05:58;;;;;;;;;;;;;;;8.64;73.68;102385.88;5089772;28;20354;-87
2022/12/30 10:08:26;;;;;;;;;;;;;;;8.64;73.87;102389.41;5052553;28;19925;-86
2022/12/30 10:10:53;;;;;;;;;;;;;;;8.65;73.70;102390.31;5062833;28;19947;-83
2022/12/30 10:13:21;;;;;;;;;;;;;;;8.69;73.35;102384.59;5061291;28;19993;-84
2022/12/30 10:15:55;;;;;;;;;;;;;;;8.62;73.75;102377.03;5070995;28;19947;-83
2022/12/30 10:18:29;;;;;;;;;;;;;;;8.62;73.92;102379.63;5086174;28;19962;-84
2022/12/30 10:20:58;;;;;;;;;;;;;;;8.64;73.87;102381.59;5052143;28;19994;-84
2022/12/30 10:23:31;;;;;;;;;;;;;;;8.64;73.64;102371.16;5052212;28;20386;-83
2022/12/30 10:26:10;;;;;;;;;;;;;;;8.77;75.18;102375.75;5048700;28;19929;-84
2022/12/30 10:28:37;;;;;;;;;;;;;;;8.76;74.88;102366.09;5041819;28;20379;-84
2022/12/30 10:31:07;;;;;;;;;;;;;;;8.76;74.67;102366.09;5067649;28;19921;-83
2022/12/30 10:33:33;;;;;;;;;;;;;;;8.72;74.54;102369.22;5057156;28;19921;-82
2022/12/30 10:36:05;;;;;;;;;;;;;;;8.68;74.45;102368.06;5082788;28;19943;-83
2022/12/30 10:38:30;;;;;;;;;;;;;;;8.68;74.66;102367.16;5066933;28;19920;-84
2022/12/30 10:41:02;;;;;;;;;;;;;;;8.64;74.41;102363.34;5089780;28;20038;-84
2022/12/30 10:43:33;;;;;;;;;;;;;;;8.65;74.67;102354.75;5051922;28;20349;-83
2022/12/30 10:46:20;;;;;;;;;;;;;;;8.68;74.49;102355.03;5043476;28;19925;-85
2022/12/30 10:48:55;;;;;;;;;;;;;;;8.66;74.50;102345.25;5087289;28;20004;-85
2022/12/30 10:51:21;;;;;;;;;;;;;;;8.69;74.67;102349.03;5064776;28;20439;-82
2022/12/30 10:53:46;;;;;;;;;;;;;;;8.68;74.55;102343.72;5055040;28;19921;-84
2022/12/30 10:56:15;;;;;;;;;;;;;;;8.65;74.64;102343.41;5052142;28;20378;-84
2022/12/30 10:58:41;;;;;;;;;;;;;;;8.64;75.03;102349.44;5056177;28;19921;-84
2022/12/30 11:01:10;;;;;;;;;;;;;;;8.64;74.68;102346.81;5064702;28;19943;-84
2022/12/30 11:03:37;;;;;;;;;;;;;;;8.66;74.75;102345.25;5074977;28;19925;-85
2022/12/30 11:06:22;;;;;;;;;;;;;;;8.66;74.52;102347.88;5077502;28;19925;-84
2022/12/30 11:08:48;;;;;;;;;;;;;;;8.62;74.63;102343.16;5082402;28;19928;-85
2022/12/30 11:11:13;;;;;;;;;;;;;;;8.64;74.85;102346.81;5104123;28;19920;-85
2022/12/30 11:16:27;;;;;;;;;;;;;;;8.65;74.76;102336.50;5099870;28;19924;-84
2022/12/30 11:18:52;;;;;;;;;;;;;;;8.68;74.65;102336.81;5104981;28;20019;-83
2022/12/30 11:21:29;;;;;;;;;;;;;;;8.68;74.79;102331.59;5072014;28;20003;-84
2022/12/30 11:23:55;;;;;;;;;;;;;;;8.66;74.59;102343.56;5105404;28;19931;-83
2022/12/30 11:26:21;;;;;;;;;;;;;;;8.66;74.89;102327.94;5105633;28;19921;-84
2022/12/30 11:29:07;;;;;;;;;;;;;;;8.65;75.02;102333.91;5105812;28;19963;-84
2022/12/30 11:31:34;;;;;;;;;;;;;;;8.68;74.89;102326.38;5072756;28;19920;-84
2022/12/30 11:33:59;;;;;;;;;;;;;;;8.68;74.76;102326.38;5104804;28;19920;-84
2022/12/30 11:36:28;;;;;;;;;;;;;;;8.68;74.77;102326.38;5072037;28;20343;-84
2022/12/30 11:38:53;;;;;;;;;;;;;;;8.69;74.53;102328.19;5071923;28;20416;-84
2022/12/30 11:41:23;;;;;;;;;;;;;;;8.71;74.60;102323.13;5105657;28;19921;-84
2022/12/30 11:43:50;;;;;;;;;;;;;;;8.78;74.38;102330.66;5104857;28;19921;-84
2022/12/30 11:46:22;;;;;;;;;;;;;;;8.72;74.54;102322.31;5104852;28;19924;-84
2022/12/30 11:48:56;;;;;;;;;;;;;;;8.72;74.61;102332.75;5071952;28;19952;-82
2022/12/30 11:51:26;;;;;;;;;;;;;;;8.75;74.58;102328.72;5071712;28;20429;-83
2022/12/30 11:54:04;;;;;;;;;;;;;;;8.75;74.36;102330.41;5104790;28;20411;-83
2022/12/30 11:56:30;;;;;;;;;;;;;;;8.86;74.05;102327.03;5072425;28;19916;-84
2022/12/30 11:58:57;;;;;;;;;;;;;;;8.76;74.40;102324.41;5104684;28;19943;-84
2022/12/30 12:01:22;;;;;;;;;;;;;;;8.76;74.52;102322.75;5104574;28;19920;-84
2022/12/30 12:03:57;;;;;;;;;;;;;;;8.80;74.48;102315.19;5072550;28;20444;-84
2022/12/30 12:06:22;;;;;;;;;;;;;;;8.89;73.86;102309.09;5070892;28;19920;-84
2022/12/30 12:08:57;;;;;;;;;;;;;;;8.87;74.00;102310.66;5103201;28;19921;-83
2022/12/30 12:11:24;;;;;;;;;;;;;;;8.87;73.90;102307.09;5102995;28;19917;-84
2022/12/30 12:14:02;;;;;;;;;;;;;;;8.88;73.87;102298.53;5103704;28;20417;-85
2022/12/30 12:16:45;;;;;;;;;;;;;;;8.91;74.01;102306.59;5070997;28;19916;-84
2022/12/30 12:19:17;;;;;;;;;;;;;;;8.94;73.71;102296.44;5062278;28;19942;-86
2022/12/30 12:21:43;;;;;;;;;;;;;;;8.90;74.10;102300.47;5078314;28;19916;-84
2022/12/30 12:24:17;;;;;;;;;;;;;;;8.89;74.29;102300.31;5095134;28;19925;-84
2022/12/30 12:26:48;;;;;;;;;;;;;;;8.91;74.18;102298.78;5045462;28;20004;-84
2022/12/30 12:29:13;;;;;;;;;;;;;;;8.92;74.22;102295.41;5048393;28;19924;-84
2022/12/30 12:31:39;;;;;;;;;;;;;;;8.94;74.21;102294.75;5058866;28;19939;-84
2022/12/30 12:34:13;;;;;;;;;;;;;;;9.03;73.68;102298.91;5067080;28;19935;-84
2022/12/30 12:36:58;;;;;;;;;;;;;;;9.02;73.74;102297.09;5060722;28;20385;-84
2022/12/30 12:39:27;;;;;;;;;;;;;;;8.99;73.81;102296.81;5071692;28;19923;-84
2022/12/30 12:41:52;;;;;;;;;;;;;;;9.00;73.89;102291.75;5086829;28;19916;-82
2022/12/30 12:44:17;;;;;;;;;;;;;;;9.02;73.86;102299.72;5050871;28;19928;-84
2022/12/30 12:46:43;;;;;;;;;;;;;;;9.05;73.92;102299.94;5050821;28;20318;-84
2022/12/30 12:49:12;;;;;;;;;;;;;;;9.08;73.80;102297.59;5067984;28;19928;-85
2022/12/30 12:51:48;;;;;;;;;;;;;;;9.03;74.12;102306.72;5095869;28;19921;-85
2022/12/30 12:54:29;;;;;;;;;;;;;;;9.09;73.86;102305.53;5047612;28;19924;-84
2022/12/30 12:56:57;;;;;;;;;;;;;;;9.08;73.82;102303.75;5053130;28;19920;-85
2022/12/30 12:59:41;;;;;;;;;;;;;;;9.09;73.69;102309.84;5071908;28;20521;-85
2022/12/30 13:02:26;;;;;;;;;;;;;;;9.07;73.92;102312.31;5069849;28;19916;-85
2022/12/30 13:05:01;;;;;;;;;;;;;;;9.06;73.80;102310.53;5069391;28;19917;-86
2022/12/30 13:07:46;;;;;;;;;;;;;;;9.01;74.26;102327.44;5033005;28;20310;-85
2022/12/30 13:10:16;;;;;;;;;;;;;;;9.01;74.01;102324.84;5050411;28;20759;-85
2022/12/30 13:13:15;;;;;;;;;;;;;;;8.99;74.32;102318.56;5090470;28;19939;-86
2022/12/30 13:15:42;;;;;;;;;;;;;;;8.94;74.32;102323.41;5060608;28;20412;-85
2022/12/30 13:18:18;;;;;;;;;;;;;;;9.04;74.23;102330.31;5060344;28;19939;-85
2022/12/30 13:20:48;;;;;;;;;;;;;;;9.08;74.15;102321.03;5044438;28;19921;-85
2022/12/30 13:23:17;;;;;;;;;;;;;;;9.05;73.97;102329.53;5084321;28;19959;-85
2022/12/30 13:25:48;;;;;;;;;;;;;;;9.02;74.42;102333.59;5064675;28;20023;-85
2022/12/30 13:28:33;;;;;;;;;;;;;;;9.09;74.02;102328.09;5066321;28;19926;-85
2022/12/30 13:31:09;;;;;;;;;;;;;;;9.05;74.10;102336.44;5069271;28;19954;-85
2022/12/30 13:33:52;;;;;;;;;;;;;;;9.11;74.07;102334.34;5056161;28;20019;-84
2022/12/30 13:36:18;;;;;;;;;;;;;;;9.01;74.29;102329.13;5040593;28;19928;-84
2022/12/30 13:38:48;;;;;;;;;;;;;;;8.98;74.44;102336.72;5065914;28;20383;-85
2022/12/30 13:41:19;;;;;;;;;;;;;;;9.06;74.06;102338.25;5064831;28;20390;-84
2022/12/30 13:43:49;;;;;;;;;;;;;;;8.93;74.40;102337.22;5050498;28;20376;-85
2022/12/30 13:46:18;;;;;;;;;;;;;;;8.95;74.36;102339.94;5063630;28;19929;-84
2022/12/30 13:48:49;;;;;;;;;;;;;;;8.93;74.54;102337.22;5052444;28;19928;-85
2022/12/30 13:51:24;;;;;;;;;;;;;;;8.94;74.63;102336.44;5077762;28;19921;-84
2022/12/30 13:53:53;;;;;;;;;;;;;;;8.98;74.29;102339.31;5083526;28;19920;-84